Time;durP1;ratioP1;P1;durP2;ratioP2;P2;SDS_P1;SDS_P2;PMS_P1;PMS_P2;Temp;Humidity;BMP_temperature;BMP_pressure;BME280_temperature;BME280_humidity;BME280_pressure;Samples;Min_cycle;Max_cycle;Signal;HPM_P1;HPM_P2
2021/12/01 00:01:38;;;;;;;45.97;32.23;;;10.10;99.90;;;;;;4956483;28;20046;-71
2021/12/01 00:04:04;;;;;;;42.60;30.13;;;10.10;99.90;;;;;;4951216;28;20035;-71
2021/12/01 00:06:29;;;;;;;51.40;30.77;;;10.00;99.90;;;;;;4963920;28;20027;-71
2021/12/01 00:08:55;;;;;;;34.03;27.03;;;9.90;99.90;;;;;;4970721;28;20034;-71
2021/12/01 00:11:21;;;;;;;29.27;23.47;;;;;;;;;;4960330;28;20138;-71
2021/12/01 00:13:46;;;;;;;30.07;23.27;;;9.90;99.90;;;;;;4954740;28;20035;-71
2021/12/01 00:16:12;;;;;;;31.07;23.77;;;10.10;99.90;;;;;;4955342;28;20442;-71
2021/12/01 00:18:37;;;;;;;23.97;21.13;;;10.20;99.90;;;;;;4967570;28;20330;-71
2021/12/01 00:21:03;;;;;;;26.47;20.90;;;10.00;99.90;;;;;;4966041;28;20046;-70
2021/12/01 00:23:29;;;;;;;26.13;19.67;;;10.10;99.90;;;;;;4959612;28;20035;-70
2021/12/01 00:25:55;;;;;;;25.77;19.17;;;10.30;99.90;;;;;;4973732;28;20069;-70
2021/12/01 00:28:20;;;;;;;22.67;18.93;;;10.20;99.90;;;;;;4974904;28;20027;-70
2021/12/01 00:30:46;;;;;;;19.20;16.20;;;10.00;99.90;;;;;;4967820;28;20042;-69
2021/12/01 00:33:14;;;;;;;21.77;17.30;;;10.20;99.90;;;;;;4967800;28;20067;-70
2021/12/01 00:35:40;;;;;;;18.63;14.70;;;10.30;99.90;;;;;;4973439;28;20042;-69
2021/12/01 00:38:06;;;;;;;17.80;15.43;;;10.30;99.90;;;;;;4972868;28;20390;-70
2021/12/01 00:40:32;;;;;;;16.67;14.63;;;9.90;99.90;;;;;;4971399;28;20421;-69
2021/12/01 00:42:58;;;;;;;17.13;15.17;;;10.20;99.90;;;;;;4954868;28;20042;-70
2021/12/01 00:45:25;;;;;;;17.43;12.73;;;10.30;99.90;;;;;;4955225;28;20389;-70
2021/12/01 00:47:52;;;;;;;15.23;12.77;;;10.10;99.90;;;;;;4960264;28;20494;-69
2021/12/01 00:50:31;;;;;;;12.70;10.93;;;10.40;99.90;;;;;;4956499;28;20066;-69
2021/12/01 00:53:00;;;;;;;11.67;10.47;;;10.40;99.90;;;;;;4954810;28;20034;-70
2021/12/01 00:55:27;;;;;;;10.40;9.27;;;10.10;99.90;;;;;;4959618;28;20476;-69
2021/12/01 00:57:53;;;;;;;11.03;9.83;;;10.30;99.90;;;;;;4954438;28;20027;-70
2021/12/01 01:00:25;;;;;;;11.47;9.50;;;10.20;99.90;;;;;;4968670;28;20041;-69
2021/12/01 01:02:51;;;;;;;11.13;8.47;;;10.20;99.90;;;;;;4973183;28;20039;-70
2021/12/01 01:05:17;;;;;;;9.37;7.93;;;10.20;99.90;;;;;;4972475;28;20479;-69
2021/12/01 01:07:43;;;;;;;9.67;8.67;;;10.20;99.90;;;;;;4954665;28;20025;-70
2021/12/01 01:10:25;;;;;;;13.03;9.93;;;10.40;99.90;;;;;;4954525;28;20110;-70
2021/12/01 01:18:30;;;;;;;14.80;9.83;;;10.30;99.90;;;;;;4970367;28;20377;-70
2021/12/01 01:20:56;;;;;;;11.60;9.83;;;10.10;99.90;;;;;;4958427;28;20579;-69
2021/12/01 01:23:22;;;;;;;13.50;8.73;;;10.40;99.90;;;;;;4970268;28;20207;-70
2021/12/01 01:25:47;;;;;;;11.67;9.77;;;10.30;99.90;;;;;;4953551;28;20039;-69
2021/12/01 01:28:13;;;;;;;12.13;9.60;;;10.10;99.90;;;;;;4955186;28;20484;-70
2021/12/01 01:30:38;;;;;;;10.83;9.37;;;10.10;99.90;;;;;;4967273;28;20038;-70
2021/12/01 01:33:04;;;;;;;12.80;9.77;;;10.40;99.90;;;;;;4954151;28;20424;-69
2021/12/01 01:35:30;;;;;;;10.60;9.07;;;10.20;99.90;;;;;;4954404;28;20038;-69
2021/12/01 01:37:56;;;;;;;9.40;8.40;;;10.10;99.90;;;;;;4953687;28;20152;-69
2021/12/01 01:40:22;;;;;;;10.27;8.97;;;10.30;99.90;;;;;;4956540;28;20110;-70
2021/12/01 01:42:48;;;;;;;10.13;8.03;;;10.10;99.90;;;;;;4954175;28;20058;-70
2021/12/01 01:45:15;;;;;;;8.50;7.07;;;10.30;99.90;;;;;;4952184;28;20392;-70
2021/12/01 01:47:49;;;;;;;7.87;6.67;;;10.60;99.90;;;;;;4952602;28;20421;-70
2021/12/01 01:52:59;;;;;;;7.25;5.85;;;10.40;99.90;;;;;;4973080;28;20034;-70
2021/12/01 01:55:24;;;;;;;8.47;6.03;;;10.30;99.90;;;;;;4969149;28;20043;-69
2021/12/01 01:57:50;;;;;;;6.90;5.30;;;10.30;99.90;;;;;;4953432;28;20082;-70
2021/12/01 02:00:16;;;;;;;5.67;4.47;;;10.30;99.90;;;;;;4953568;28;20073;-70
2021/12/01 02:02:43;;;;;;;5.60;4.47;;;10.20;99.90;;;;;;4953572;28;20039;-70
2021/12/01 02:05:09;;;;;;;6.17;4.57;;;10.50;99.90;;;;;;4954680;28;20034;-70
2021/12/01 02:07:35;;;;;;;6.60;5.30;;;10.80;99.90;;;;;;4972953;28;20031;-70
2021/12/01 02:10:00;;;;;;;6.33;4.70;;;10.30;99.90;;;;;;4972511;28;20027;-70
2021/12/01 02:12:26;;;;;;;7.13;5.47;;;10.20;99.90;;;;;;4972907;28;20031;-70
2021/12/01 02:14:52;;;;;;;5.93;4.60;;;;;;;;;;4972088;28;20073;-69
2021/12/01 02:17:18;;;;;;;6.70;4.87;;;;;;;;;;4952683;28;20027;-69
2021/12/01 02:19:43;;;;;;;8.87;5.30;;;10.20;99.90;;;;;;4964403;28;20067;-70
2021/12/01 02:22:09;;;;;;;6.00;5.10;;;10.20;99.90;;;;;;4972496;28;20104;-70
2021/12/01 02:24:35;;;;;;;6.90;5.67;;;10.20;99.90;;;;;;4960032;28;20040;-70
2021/12/01 02:27:00;;;;;;;6.13;5.20;;;10.00;99.90;;;;;;4951686;29;20417;-70
2021/12/01 02:29:27;;;;;;;7.90;5.10;;;10.00;99.90;;;;;;4953041;28;20026;-70
2021/12/01 02:31:54;;;;;;;7.50;5.07;;;10.10;99.90;;;;;;4968907;28;20035;-69
2021/12/01 02:34:22;;;;;;;6.27;4.67;;;10.00;99.90;;;;;;4970743;28;20065;-70
2021/12/01 02:36:50;;;;;;;7.10;5.70;;;10.00;99.90;;;;;;4972221;28;20035;-70
2021/12/01 02:39:16;;;;;;;6.43;4.93;;;10.10;99.90;;;;;;4954895;28;20034;-69
2021/12/01 02:41:44;;;;;;;5.77;4.50;;;10.10;99.90;;;;;;4952889;28;20039;-69
2021/12/01 02:44:12;;;;;;;6.87;5.33;;;9.90;99.90;;;;;;4952395;28;20062;-70
2021/12/01 02:46:38;;;;;;;6.13;5.50;;;10.00;99.90;;;;;;4952724;28;20086;-70
2021/12/01 02:49:05;;;;;;;5.60;5.10;;;10.10;99.90;;;;;;4954684;28;20027;-70
2021/12/01 02:51:32;;;;;;;6.70;5.63;;;9.50;99.90;;;;;;4972190;28;20027;-69
2021/12/01 02:53:59;;;;;;;6.37;4.90;;;9.90;99.90;;;;;;4971530;28;20026;-70
2021/12/01 02:56:27;;;;;;;6.37;5.23;;;10.00;99.90;;;;;;4960450;28;20425;-70
2021/12/01 02:58:53;;;;;;;5.97;5.37;;;;;;;;;;4951912;28;20042;-70
2021/12/01 03:01:22;;;;;;;5.30;4.80;;;9.70;99.90;;;;;;4952649;29;20046;-70
2021/12/01 03:03:49;;;;;;;5.07;4.30;;;9.80;99.90;;;;;;4960359;28;20086;-70
2021/12/01 03:06:17;;;;;;;5.30;4.17;;;9.70;99.90;;;;;;4953534;28;20544;-70
2021/12/01 03:08:45;;;;;;;5.93;4.50;;;9.70;99.90;;;;;;4955533;28;20023;-70
2021/12/01 03:11:12;;;;;;;7.80;5.30;;;9.60;99.90;;;;;;4967924;28;20062;-69
2021/12/01 03:13:38;;;;;;;4.67;4.17;;;9.60;99.90;;;;;;4971427;28;20046;-70
2021/12/01 03:16:04;;;;;;;5.87;4.30;;;9.60;99.90;;;;;;4960995;28;20085;-70
2021/12/01 03:18:30;;;;;;;5.20;4.70;;;9.50;99.90;;;;;;4954417;28;20031;-70
2021/12/01 03:20:57;;;;;;;4.60;4.20;;;9.70;99.90;;;;;;4953748;28;20044;-69
2021/12/01 03:23:24;;;;;;;4.10;3.63;;;9.70;99.90;;;;;;4950726;28;20036;-70
2021/12/01 03:25:50;;;;;;;5.23;4.37;;;9.50;99.90;;;;;;4955747;28;20077;-70
2021/12/01 03:28:16;;;;;;;4.83;4.43;;;;;;;;;;4968185;28;20090;-70
2021/12/01 03:30:42;;;;;;;5.23;4.73;;;9.60;99.90;;;;;;4962464;28;20027;-70
2021/12/01 03:33:12;;;;;;;4.40;4.00;;;9.60;99.90;;;;;;4958500;28;20031;-70
2021/12/01 03:35:40;;;;;;;4.07;3.67;;;9.50;99.90;;;;;;4969069;28;20019;-70
2021/12/01 03:38:06;;;;;;;3.97;3.30;;;9.40;99.90;;;;;;4969978;28;20116;-70
2021/12/01 03:40:32;;;;;;;4.40;3.80;;;;;;;;;;4970804;28;20058;-70
2021/12/01 03:42:58;;;;;;;4.43;3.93;;;9.50;99.90;;;;;;4971157;28;20035;-70
2021/12/01 03:45:23;;;;;;;4.37;3.70;;;9.70;99.90;;;;;;4971164;28;20026;-70
2021/12/01 03:47:50;;;;;;;4.50;3.77;;;9.40;99.90;;;;;;4974402;28;20376;-70
2021/12/01 03:50:16;;;;;;;5.17;3.80;;;9.50;99.90;;;;;;4966495;28;20041;-70
2021/12/01 03:52:41;;;;;;;4.17;3.73;;;9.40;99.90;;;;;;4958415;28;20031;-70
2021/12/01 03:55:09;;;;;;;4.37;3.13;;;9.60;99.90;;;;;;4962626;28;20039;-69
2021/12/01 03:57:34;;;;;;;4.23;3.43;;;9.40;99.90;;;;;;4976857;28;20038;-70
2021/12/01 04:00:00;;;;;;;5.13;3.73;;;9.40;99.90;;;;;;4970253;28;20388;-70
2021/12/01 04:02:26;;;;;;;4.77;4.23;;;;;;;;;;4977495;28;20046;-70
2021/12/01 04:04:52;;;;;;;4.93;3.97;;;9.40;99.90;;;;;;4977349;28;20058;-69
2021/12/01 04:07:17;;;;;;;5.37;3.90;;;9.40;99.90;;;;;;4976328;28;20081;-70
2021/12/01 04:09:44;;;;;;;4.27;3.67;;;9.40;99.90;;;;;;4975844;28;20031;-70
2021/12/01 04:12:11;;;;;;;4.93;3.90;;;9.40;99.90;;;;;;4957948;28;20050;-70
2021/12/01 04:14:38;;;;;;;3.63;3.30;;;9.30;99.90;;;;;;4958173;28;20050;-70
2021/12/01 04:17:05;;;;;;;5.03;4.53;;;9.40;99.90;;;;;;4958073;28;20019;-70
2021/12/01 04:19:31;;;;;;;4.50;4.10;;;9.20;99.90;;;;;;4964226;28;20031;-69
2021/12/01 04:21:57;;;;;;;7.13;4.33;;;9.40;99.90;;;;;;4967262;28;20042;-70
2021/12/01 04:24:23;;;;;;;4.87;4.00;;;;;;;;;;4977323;28;20030;-72
2021/12/01 04:26:49;;;;;;;4.03;3.63;;;9.50;99.90;;;;;;4961983;28;20047;-70
2021/12/01 04:29:15;;;;;;;3.40;3.10;;;9.40;99.90;;;;;;4964215;28;20026;-71
2021/12/01 04:31:41;;;;;;;4.70;3.77;;;;;;;;;;4977313;28;20035;-71
2021/12/01 04:34:07;;;;;;;4.10;3.70;;;;;;;;;;4977190;28;20037;-71
2021/12/01 04:36:35;;;;;;;3.60;3.30;;;9.30;99.90;;;;;;4977010;28;20105;-71
2021/12/01 04:39:03;;;;;;;3.77;3.47;;;9.40;99.90;;;;;;4966145;28;20031;-70
2021/12/01 04:41:36;;;;;;;5.33;3.40;;;9.40;99.90;;;;;;4958053;28;20031;-71
2021/12/01 04:44:04;;;;;;;7.80;3.90;;;;;;;;;;4957825;28;20078;-70
2021/12/01 04:46:38;;;;;;;4.70;4.20;;;9.40;99.90;;;;;;4959113;28;20433;-70
2021/12/01 04:49:03;;;;;;;;;;;9.30;99.90;;;;;;4958306;28;20031;-71
2021/12/01 04:51:29;;;;;;;4.10;3.60;;;9.30;99.90;;;;;;4958016;29;20005;-70
2021/12/01 04:53:58;;;;;;;4.30;3.73;;;9.30;99.90;;;;;;4963953;28;20420;-71
2021/12/01 04:56:24;;;;;;;4.47;4.07;;;9.40;99.90;;;;;;4975985;28;20388;-70
2021/12/01 04:58:50;;;;;;;4.50;4.00;;;;;;;;;;4973297;28;20026;-71
2021/12/01 05:01:17;;;;;;;6.57;3.80;;;9.30;99.90;;;;;;4974191;28;20038;-71
2021/12/01 05:03:43;;;;;;;5.20;4.33;;;;;;;;;;4973975;28;20074;-70
2021/12/01 05:06:12;;;;;;;5.53;4.93;;;9.40;99.90;;;;;;4973826;28;20038;-71
2021/12/01 05:08:38;;;;;;;7.70;5.23;;;;;;;;;;4968068;28;20035;-70
2021/12/01 05:11:04;;;;;;;5.30;4.83;;;9.30;99.90;;;;;;4954568;29;20106;-71
2021/12/01 05:13:29;;;;;;;5.77;5.17;;;;;;;;;;4954843;28;20031;-71
2021/12/01 05:15:55;;;;;;;6.40;5.07;;;9.40;99.90;;;;;;4954171;29;20704;-71
2021/12/01 05:18:21;;;;;;;6.43;5.63;;;;;;;;;;4954703;28;20050;-71
2021/12/01 05:20:47;;;;;;;6.30;5.70;;;9.10;99.90;;;;;;4952554;29;20505;-71
2021/12/01 05:23:15;;;;;;;7.33;5.70;;;;;;;;;;4954827;28;20035;-70
2021/12/01 05:25:43;;;;;;;6.47;5.47;;;9.10;99.90;;;;;;4973579;28;20143;-70
2021/12/01 05:28:10;;;;;;;5.23;4.60;;;;;;;;;;4973240;28;20458;-70
2021/12/01 05:30:36;;;;;;;5.77;5.13;;;9.00;99.90;;;;;;4973516;28;20030;-71
2021/12/01 05:33:06;;;;;;;8.07;4.13;;;8.90;99.90;;;;;;4973459;28;20030;-70
2021/12/01 05:35:33;;;;;;;5.53;4.77;;;9.00;99.90;;;;;;4973422;28;20035;-71
2021/12/01 05:37:59;;;;;;;4.77;3.80;;;9.00;99.90;;;;;;4972651;28;20081;-70
2021/12/01 05:40:25;;;;;;;5.23;4.40;;;;;;;;;;4969584;28;20488;-71
2021/12/01 05:42:50;;;;;;;5.17;3.90;;;9.00;99.90;;;;;;4972947;28;20046;-71
2021/12/01 05:45:16;;;;;;;4.83;3.77;;;;;;;;;;4973303;28;20468;-71
2021/12/01 05:47:42;;;;;;;6.23;3.63;;;9.00;99.90;;;;;;4972967;28;20085;-70
2021/12/01 05:50:08;;;;;;;4.73;4.07;;;8.90;99.90;;;;;;4972654;28;20030;-71
2021/12/01 05:52:34;;;;;;;5.00;3.83;;;;;;;;;;4972495;28;20035;-70
2021/12/01 05:55:00;;;;;;;4.40;3.27;;;;;;;;;;4972171;28;20033;-71
2021/12/01 05:57:25;;;;;;;6.30;3.13;;;8.90;99.90;;;;;;4972996;28;20031;-70
2021/12/01 05:59:51;;;;;;;4.60;2.67;;;8.90;99.90;;;;;;4972553;28;20035;-70
2021/12/01 06:02:17;;;;;;;5.37;3.63;;;8.50;99.90;;;;;;4972840;28;20054;-71
2021/12/01 06:04:43;;;;;;;3.40;2.73;;;8.80;99.90;;;;;;4972674;28;20039;-71
2021/12/01 06:07:08;;;;;;;3.77;3.47;;;9.00;99.90;;;;;;4972086;28;20031;-70
2021/12/01 06:09:35;;;;;;;4.90;2.90;;;;;;;;;;4971916;28;20041;-71
2021/12/01 06:12:01;;;;;;;3.47;2.50;;;8.90;99.90;;;;;;4972167;28;20105;-70
2021/12/01 06:14:27;;;;;;;5.23;3.07;;;8.90;99.90;;;;;;4971634;28;20107;-72
2021/12/01 06:16:53;;;;;;;2.90;2.20;;;8.90;99.90;;;;;;4972274;28;20484;-71
2021/12/01 06:19:19;;;;;;;2.63;2.10;;;9.50;99.90;;;;;;4972663;28;20051;-70
2021/12/01 06:21:45;;;;;;;3.00;1.90;;;8.90;99.90;;;;;;4971920;28;20039;-72
2021/12/01 06:24:11;;;;;;;3.70;1.93;;;;;;;;;;4963720;28;20078;-71
2021/12/01 06:26:37;;;;;;;1.67;1.37;;;8.70;99.90;;;;;;4953161;29;20055;-71
2021/12/01 06:29:03;;;;;;;6.60;2.20;;;8.60;99.90;;;;;;4951913;29;20393;-71
2021/12/01 06:31:29;;;;;;;2.40;1.40;;;8.90;99.90;;;;;;4953382;28;20063;-71
2021/12/01 06:33:54;;;;;;;2.10;1.60;;;8.40;99.90;;;;;;4952624;28;20062;-71
2021/12/01 06:36:20;;;;;;;2.00;1.53;;;8.70;99.90;;;;;;4952755;28;20452;-71
2021/12/01 06:38:46;;;;;;;2.23;1.70;;;;;;;;;;4958462;28;20065;-71
2021/12/01 06:41:11;;;;;;;1.77;1.47;;;8.90;99.90;;;;;;4972296;28;20042;-71
2021/12/01 06:43:37;;;;;;;1.87;1.43;;;8.90;99.90;;;;;;4972104;28;20105;-70
2021/12/01 06:46:03;;;;;;;2.07;1.50;;;8.90;99.90;;;;;;4972087;28;20035;-71
2021/12/01 06:48:28;;;;;;;2.17;1.63;;;8.80;99.90;;;;;;4972217;28;20437;-71
2021/12/01 06:50:55;;;;;;;3.40;1.77;;;;;;;;;;4971280;28;20476;-70
2021/12/01 06:53:21;;;;;;;3.00;1.90;;;;;;;;;;4972433;28;20026;-71
2021/12/01 06:55:47;;;;;;;2.07;1.60;;;8.50;99.90;;;;;;4967982;28;20035;-70
2021/12/01 06:58:13;;;;;;;2.77;1.97;;;8.50;99.90;;;;;;4962005;28;20065;-71
2021/12/01 07:00:39;;;;;;;3.03;2.03;;;8.80;99.90;;;;;;4965378;28;20063;-70
2021/12/01 07:03:05;;;;;;;2.03;1.67;;;;;;;;;;4969556;28;20396;-71
2021/12/01 07:05:31;;;;;;;2.23;1.70;;;8.70;99.90;;;;;;4971674;28;20031;-70
2021/12/01 07:07:57;;;;;;;2.37;1.43;;;;;;;;;;4970084;28;20039;-71
2021/12/01 07:10:23;;;;;;;3.57;1.60;;;;;;;;;;4971432;28;20038;-71
2021/12/01 07:12:48;;;;;;;3.97;2.23;;;8.70;99.90;;;;;;4971347;28;20476;-70
2021/12/01 07:15:14;;;;;;;2.13;1.77;;;;;;;;;;4971348;28;20033;-70
2021/12/01 07:17:41;;;;;;;1.97;1.77;;;8.60;99.90;;;;;;4969457;28;20027;-71
2021/12/01 07:20:08;;;;;;;4.17;2.43;;;8.80;99.90;;;;;;4971523;28;20037;-71
2021/12/01 07:22:34;;;;;;;4.87;2.40;;;;;;;;;;4970795;28;20089;-72
2021/12/01 07:25:00;;;;;;;3.60;2.17;;;8.70;99.90;;;;;;4970828;28;20023;-71
2021/12/01 07:27:26;;;;;;;2.93;2.40;;;8.80;99.90;;;;;;4971575;28;20061;-72
2021/12/01 07:29:51;;;;;;;2.60;2.40;;;;;;;;;;4971050;28;20054;-71
2021/12/01 07:32:17;;;;;;;3.03;2.17;;;8.80;99.90;;;;;;4971310;28;20042;-71
2021/12/01 07:34:43;;;;;;;3.17;2.50;;;;;;;;;;4971347;28;20042;-71
2021/12/01 07:37:14;;;;;;;3.30;2.43;;;8.60;99.90;;;;;;4971456;28;20038;-71
2021/12/01 07:39:41;;;;;;;4.03;3.07;;;8.70;99.90;;;;;;4958689;28;20540;-71
2021/12/01 07:42:07;;;;;;;3.33;2.73;;;8.60;99.90;;;;;;4952020;28;20062;-71
2021/12/01 07:44:33;;;;;;;4.80;3.03;;;8.80;99.90;;;;;;4951996;28;20472;-71
2021/12/01 07:46:59;;;;;;;3.77;2.97;;;8.70;99.90;;;;;;4951622;28;20042;-69
2021/12/01 07:49:25;;;;;;;3.77;3.03;;;8.80;99.90;;;;;;4952271;28;20027;-69
2021/12/01 07:51:51;;;;;;;4.03;3.30;;;8.90;99.90;;;;;;4951183;28;20385;-69
2021/12/01 07:54:17;;;;;;;3.80;3.40;;;9.00;99.90;;;;;;4951347;28;20031;-70
2021/12/01 07:56:42;;;;;;;5.90;4.83;;;8.80;99.90;;;;;;4963458;28;20085;-69
2021/12/01 07:59:11;;;;;;;5.30;4.70;;;8.80;99.90;;;;;;4970025;28;20031;-69
2021/12/01 08:01:36;;;;;;;5.30;4.40;;;9.00;99.90;;;;;;4969672;28;20035;-69
2021/12/01 08:04:03;;;;;;;8.40;5.27;;;9.00;99.90;;;;;;4969954;28;20054;-70
2021/12/01 08:06:31;;;;;;;6.87;6.17;;;8.90;99.90;;;;;;4970344;28;20039;-70
2021/12/01 08:09:00;;;;;;;6.67;5.97;;;;;;;;;;4963051;28;20062;-71
2021/12/01 08:11:26;;;;;;;9.00;6.70;;;8.90;99.90;;;;;;4950821;28;20073;-70
2021/12/01 08:13:52;;;;;;;10.27;7.30;;;9.10;99.90;;;;;;4948876;29;20032;-69
2021/12/01 08:16:17;;;;;;;8.83;6.40;;;9.10;99.90;;;;;;4950543;28;20043;-69
2021/12/01 08:18:43;;;;;;;8.20;7.40;;;9.10;99.90;;;;;;4950521;28;20031;-69
2021/12/01 08:21:08;;;;;;;7.50;6.70;;;;;;;;;;4950558;28;20043;-70
2021/12/01 08:23:34;;;;;;;8.97;8.00;;;9.30;99.90;;;;;;4953020;28;20031;-70
2021/12/01 08:26:00;;;;;;;8.73;7.77;;;9.30;99.90;;;;;;4968385;28;20391;-70
2021/12/01 08:28:25;;;;;;;8.23;7.37;;;9.20;99.90;;;;;;4969785;28;20047;-69
2021/12/01 08:30:51;;;;;;;8.90;8.00;;;;;;;;;;4969028;28;20031;-69
2021/12/01 08:33:17;;;;;;;9.23;6.67;;;;;;;;;;4970768;28;20555;-69
2021/12/01 08:35:42;;;;;;;11.57;8.23;;;9.20;99.90;;;;;;4973515;28;20037;-69
2021/12/01 08:38:08;;;;;;;11.27;8.67;;;9.50;99.90;;;;;;4972916;28;20033;-70
2021/12/01 08:40:34;;;;;;;8.97;8.10;;;9.20;99.90;;;;;;4972942;28;20027;-70
2021/12/01 08:42:59;;;;;;;12.27;8.90;;;9.50;99.90;;;;;;4973059;28;20035;-70
2021/12/01 08:45:25;;;;;;;10.30;9.30;;;;;;;;;;4972942;28;20031;-70
2021/12/01 08:47:51;;;;;;;10.00;9.00;;;9.40;99.90;;;;;;4971439;28;20034;-69
2021/12/01 08:50:17;;;;;;;10.37;9.37;;;9.40;99.90;;;;;;4973439;28;20031;-70
2021/12/01 08:52:44;;;;;;;11.50;8.93;;;9.50;99.90;;;;;;4972855;28;20081;-70
2021/12/01 08:55:10;;;;;;;9.33;8.43;;;9.60;99.90;;;;;;4954766;28;20027;-70
2021/12/01 08:57:36;;;;;;;10.37;9.33;;;9.70;99.90;;;;;;4953833;28;20547;-69
2021/12/01 09:00:04;;;;;;;9.80;8.80;;;9.80;99.90;;;;;;4953587;28;20066;-70
2021/12/01 09:02:29;;;;;;;9.63;7.73;;;9.50;99.90;;;;;;4954850;28;20046;-70
2021/12/01 09:04:55;;;;;;;10.77;9.57;;;9.90;99.90;;;;;;4954437;28;20020;-70
2021/12/01 09:07:21;;;;;;;10.27;8.53;;;9.60;99.90;;;;;;4954974;28;20031;-70
2021/12/01 09:09:47;;;;;;;10.50;8.70;;;9.50;99.90;;;;;;4969138;28;20038;-69
2021/12/01 09:12:14;;;;;;;13.03;9.13;;;9.70;99.90;;;;;;4974038;28;20097;-70
2021/12/01 09:14:41;;;;;;;9.53;8.33;;;9.60;99.90;;;;;;4973353;28;20472;-70
2021/12/01 09:17:08;;;;;;;14.87;7.40;;;9.10;99.90;;;;;;4973761;28;20046;-70
2021/12/01 09:19:34;;;;;;;7.97;5.90;;;9.50;99.90;;;;;;4973775;28;20034;-70
2021/12/01 09:21:59;;;;;;;6.57;5.23;;;9.30;99.90;;;;;;4973629;28;20038;-70
2021/12/01 09:24:25;;;;;;;7.53;4.10;;;9.30;99.90;;;;;;4972319;28;20387;-69
2021/12/01 09:26:50;;;;;;;9.63;3.33;;;9.40;99.90;;;;;;4973215;28;20761;-69
2021/12/01 09:29:16;;;;;;;11.27;3.60;;;9.60;99.90;;;;;;4973398;28;20035;-70
2021/12/01 09:31:42;;;;;;;12.77;4.93;;;9.20;99.90;;;;;;4973483;28;20014;-69
2021/12/01 09:34:07;;;;;;;8.20;2.80;;;9.30;99.90;;;;;;4973463;28;20111;-69
2021/12/01 09:36:34;;;;;;;9.00;2.77;;;9.10;99.90;;;;;;4973607;28;20102;-70
2021/12/01 09:38:59;;;;;;;9.37;1.90;;;9.00;99.90;;;;;;4965290;28;20388;-69
2021/12/01 09:41:25;;;;;;;9.87;2.40;;;9.20;99.90;;;;;;4954282;28;20047;-69
2021/12/01 09:43:51;;;;;;;10.60;2.63;;;9.10;99.90;;;;;;4953432;28;20464;-70
2021/12/01 09:46:17;;;;;;;6.27;2.40;;;9.20;99.90;;;;;;4953520;28;20032;-70
2021/12/01 09:48:44;;;;;;;11.57;2.53;;;9.00;99.90;;;;;;4953855;28;20019;-70
2021/12/01 09:51:12;;;;;;;10.57;2.20;;;9.00;99.90;;;;;;4965652;28;20038;-69
2021/12/01 09:53:38;;;;;;;7.93;2.13;;;9.20;99.90;;;;;;4967389;28;20120;-69
2021/12/01 09:56:04;;;;;;;12.63;2.07;;;9.20;99.90;;;;;;4953888;28;20448;-70
2021/12/01 09:58:31;;;;;;;8.77;2.00;;;10.20;99.90;;;;;;4953685;28;20400;-71
2021/12/01 10:01:00;;;;;;;11.63;1.77;;;9.10;99.90;;;;;;4955828;28;20034;-70
2021/12/01 10:03:28;;;;;;;9.23;2.87;;;9.20;99.90;;;;;;4973215;28;20031;-70
2021/12/01 10:06:02;;;;;;;13.17;2.10;;;9.10;99.90;;;;;;4972658;28;20042;-69
2021/12/01 10:08:29;;;;;;;10.43;2.17;;;9.10;99.90;;;;;;4972996;28;20014;-70
2021/12/01 10:10:56;;;;;;;10.30;1.87;;;9.10;99.90;;;;;;4964326;28;20019;-70
2021/12/01 10:13:29;;;;;;;15.50;3.33;;;9.30;99.90;;;;;;4953394;28;20028;-70
2021/12/01 10:15:56;;;;;;;8.03;1.40;;;9.30;99.90;;;;;;4953174;28;20079;-69
2021/12/01 10:18:22;;;;;;;6.27;1.40;;;9.60;99.90;;;;;;4953687;28;20031;-70
2021/12/01 10:20:57;;;;;;;9.83;1.63;;;9.50;99.90;;;;;;4959602;28;20031;-70
2021/12/01 10:23:24;;;;;;;6.67;1.17;;;9.70;99.90;;;;;;4972657;28;20039;-70
2021/12/01 10:25:50;;;;;;;7.03;1.10;;;;;;;;;;4972124;28;20023;-70
2021/12/01 10:28:46;;;;;;;7.00;1.30;;;9.50;99.90;;;;;;4966310;28;20078;-69
2021/12/01 10:31:13;;;;;;;6.00;0.80;;;9.40;99.90;;;;;;4972238;28;20373;-69
2021/12/01 10:33:40;;;;;;;7.93;0.80;;;9.30;99.90;;;;;;4972536;28;20042;-70
2021/12/01 10:36:07;;;;;;;10.17;1.57;;;9.30;99.90;;;;;;4959457;28;20025;-70
2021/12/01 10:38:37;;;;;;;9.30;1.50;;;9.30;99.90;;;;;;4972043;28;20035;-69
2021/12/01 10:41:09;;;;;;;5.00;0.93;;;9.30;99.90;;;;;;4967438;28;20019;-70
2021/12/01 10:43:44;;;;;;;7.33;0.97;;;9.30;99.90;;;;;;4972128;28;20081;-71
2021/12/01 10:46:17;;;;;;;6.63;0.60;;;9.30;99.90;;;;;;4966425;28;20540;-70
2021/12/01 10:48:45;;;;;;;6.30;0.70;;;9.20;99.90;;;;;;4960886;28;20023;-70
2021/12/01 10:51:30;;;;;;;3.17;0.60;;;9.00;99.90;;;;;;4961200;28;20015;-70
2021/12/01 10:53:56;;;;;;;6.17;0.97;;;9.00;99.90;;;;;;4964065;28;20476;-70
2021/12/01 10:56:22;;;;;;;9.87;1.20;;;8.90;99.90;;;;;;4951827;28;20118;-69
2021/12/01 10:58:48;;;;;;;5.50;0.97;;;;;;;;;;4958272;28;20113;-70
2021/12/01 11:01:23;;;;;;;5.03;0.87;;;8.90;99.90;;;;;;4971741;28;20046;-70
2021/12/01 11:03:50;;;;;;;6.27;1.17;;;;;;;;;;4971925;28;20027;-70
2021/12/01 11:06:21;;;;;;;6.20;0.87;;;9.30;99.90;;;;;;4972026;28;20099;-70
2021/12/01 11:08:56;;;;;;;11.73;1.27;;;9.00;99.90;;;;;;4971708;28;20448;-70
2021/12/01 11:11:24;;;;;;;5.37;0.97;;;9.10;99.90;;;;;;4971367;28;20029;-70
2021/12/01 11:13:50;;;;;;;6.33;1.43;;;;;;;;;;4971570;28;20274;-70
2021/12/01 11:16:18;;;;;;;7.27;1.20;;;9.30;99.90;;;;;;4971537;28;20031;-70
2021/12/01 11:18:46;;;;;;;8.47;1.33;;;8.90;99.90;;;;;;4971053;28;20022;-70
2021/12/01 11:21:17;;;;;;;12.13;1.73;;;9.20;99.90;;;;;;4969570;28;20041;-70
2021/12/01 11:23:48;;;;;;;3.67;1.10;;;9.30;99.90;;;;;;4971527;28;20030;-70
2021/12/01 11:26:18;;;;;;;6.47;0.87;;;9.30;99.90;;;;;;4970742;28;20042;-71
2021/12/01 11:28:49;;;;;;;6.07;1.23;;;9.30;99.90;;;;;;4971544;28;20042;-70
2021/12/01 11:31:17;;;;;;;20.37;2.30;;;9.40;99.90;;;;;;4971242;28;20546;-70
2021/12/01 11:33:46;;;;;;;6.90;1.23;;;9.40;99.90;;;;;;4971371;28;20113;-70
2021/12/01 11:36:15;;;;;;;3.33;0.90;;;9.30;99.90;;;;;;4970937;28;20117;-70
2021/12/01 11:38:41;;;;;;;10.67;1.33;;;9.20;99.90;;;;;;4969030;28;20495;-69
2021/12/01 11:41:08;;;;;;;7.97;1.17;;;9.30;99.90;;;;;;4965978;28;20109;-69
2021/12/01 11:43:35;;;;;;;14.77;3.07;;;9.30;99.90;;;;;;4946491;28;20483;-69
2021/12/01 11:46:01;;;;;;;6.73;1.00;;;9.30;99.90;;;;;;4949173;28;20123;-70
2021/12/01 11:48:38;;;;;;;7.43;1.30;;;9.20;99.90;;;;;;4953527;28;20031;-69
2021/12/01 11:51:35;;;;;;;7.43;1.10;;;9.20;99.90;;;;;;4951359;28;20034;-70
2021/12/01 11:54:19;;;;;;;8.27;1.07;;;9.20;99.90;;;;;;4951167;29;20023;-69
2021/12/01 11:56:55;;;;;;;8.88;1.05;;;9.40;99.90;;;;;;4958434;28;20102;-69
2021/12/01 11:59:44;;;;;;;8.67;1.10;;;9.30;99.90;;;;;;4961321;28;20031;-70
2021/12/01 12:02:15;;;;;;;4.53;1.17;;;9.50;99.90;;;;;;4951961;28;20047;-69
2021/12/01 12:04:46;;;;;;;10.07;2.73;;;8.40;99.90;;;;;;4954367;28;20451;-70
2021/12/01 12:07:25;;;;;;;7.47;1.20;;;9.20;99.90;;;;;;4971039;28;20023;-70
2021/12/01 12:10:11;;;;;;;7.07;1.40;;;8.90;99.90;;;;;;4973446;28;20386;-70
2021/12/01 12:13:03;;;;;;;6.20;1.27;;;9.00;99.90;;;;;;4975082;28;20030;-70
2021/12/01 12:15:32;;;;;;;7.27;1.87;;;9.10;99.90;;;;;;4955648;28;20175;-69
2021/12/01 12:17:58;;;;;;;9.17;1.90;;;9.30;99.90;;;;;;4955472;29;20027;-70
2021/12/01 12:20:28;;;;;;;8.43;1.40;;;9.50;99.90;;;;;;4955539;29;20122;-70
2021/12/01 12:22:55;;;;;;;7.13;1.60;;;9.40;99.90;;;;;;4966844;28;20443;-70
2021/12/01 12:25:43;;;;;;;6.93;1.80;;;9.30;99.90;;;;;;4963519;28;20477;-70
2021/12/01 12:28:24;;;;;;;8.77;2.10;;;9.40;99.90;;;;;;4969835;28;20385;-70
2021/12/01 12:30:52;;;;;;;9.33;1.20;;;9.20;99.90;;;;;;4972375;28;20031;-70
2021/12/01 12:33:22;;;;;;;14.40;1.37;;;9.30;99.90;;;;;;4974682;28;20034;-70
2021/12/01 12:35:55;;;;;;;9.17;1.40;;;8.30;99.90;;;;;;4961902;28;20023;-70
2021/12/01 12:38:20;;;;;;;7.33;1.70;;;9.40;99.90;;;;;;4971500;28;20385;-70
2021/12/01 12:40:47;;;;;;;11.07;1.57;;;9.40;99.90;;;;;;4974437;28;20035;-71
2021/12/01 12:43:23;;;;;;;8.03;2.00;;;9.50;99.90;;;;;;4973860;28;20066;-71
2021/12/01 12:46:06;;;;;;;11.67;1.60;;;9.60;99.90;;;;;;4974350;28;20090;-70
2021/12/01 12:48:41;;;;;;;6.85;1.15;;;9.70;99.90;;;;;;4974381;28;20026;-70
2021/12/01 12:51:26;;;;;;;10.77;1.13;;;9.50;99.90;;;;;;4956716;28;20433;-71
2021/12/01 12:54:04;;;;;;;11.33;1.40;;;9.90;99.90;;;;;;4960565;28;20038;-70
2021/12/01 12:56:33;;;;;;;6.13;0.90;;;9.50;99.90;;;;;;4966773;28;20034;-70
2021/12/01 12:59:25;;;;;;;12.67;2.40;;;9.80;99.90;;;;;;4973265;28;20030;-70
2021/12/01 13:01:55;;;;;;;6.40;1.10;;;9.60;99.90;;;;;;4973751;28;20122;-70
2021/12/01 13:04:54;;;;;;;8.43;1.37;;;9.70;99.90;;;;;;4973081;28;20019;-70
2021/12/01 13:07:38;;;;;;;9.63;1.50;;;9.70;99.90;;;;;;4973567;28;20038;-71
2021/12/01 13:10:12;;;;;;;;;;;9.70;99.90;;;;;;4973901;28;20102;-70
2021/12/01 13:12:51;;;;;;;7.80;1.00;;;9.90;99.90;;;;;;4974077;28;19965;-70
2021/12/01 13:15:29;;;;;;;6.90;1.47;;;9.90;99.90;;;;;;4973733;28;20081;-70
2021/12/01 13:18:05;;;;;;;8.13;1.73;;;9.80;99.90;;;;;;4973368;28;20033;-70